createdAt,value
2019-02-10T00:00:03.811Z,0.00
2019-02-10T00:01:03.832Z,0.00
2019-02-10T00:02:03.767Z,0.00
2019-02-10T00:03:03.724Z,0.00
2019-02-10T00:04:03.701Z,0.00
2019-02-10T00:05:03.757Z,0.00
2019-02-10T00:06:03.647Z,0.00
2019-02-10T00:07:03.664Z,0.00
2019-02-10T00:08:03.613Z,0.00
2019-02-10T00:09:03.561Z,0.00
2019-02-10T00:10:03.572Z,0.00
2019-02-10T00:11:03.513Z,0.00
2019-02-10T00:12:03.593Z,0.00
2019-02-10T00:13:03.456Z,0.00
2019-02-10T00:14:03.426Z,0.00
2019-02-10T00:15:03.393Z,0.00
2019-02-10T00:16:03.413Z,0.00
2019-02-10T00:17:03.342Z,0.00
2019-02-10T00:18:03.421Z,0.00
2019-02-10T00:19:03.283Z,0.00
2019-02-10T00:20:03.274Z,0.00
2019-02-10T00:21:03.343Z,0.00
2019-02-10T00:22:03.207Z,0.00
2019-02-10T00:23:03.252Z,0.00
2019-02-10T00:24:03.153Z,0.00
2019-02-10T00:25:03.122Z,0.00
2019-02-10T00:26:03.103Z,0.00
2019-02-10T00:27:03.185Z,0.00
2019-02-10T00:28:03.043Z,0.00
2019-02-10T00:29:03.083Z,0.00
2019-02-10T00:30:02.983Z,0.00
2019-02-10T00:31:02.956Z,0.00
2019-02-10T00:32:02.992Z,0.00
2019-02-10T00:33:02.905Z,0.00
2019-02-10T00:34:02.904Z,0.00
2019-02-10T00:35:02.832Z,0.00
2019-02-10T00:36:02.926Z,0.00
2019-02-10T00:37:02.796Z,0.00
2019-02-10T00:38:02.833Z,0.00
2019-02-10T00:39:02.733Z,0.00
2019-02-10T00:40:02.743Z,0.00
2019-02-10T00:41:02.683Z,0.00
2019-02-10T00:42:02.652Z,0.00
2019-02-10T00:43:02.632Z,0.00
2019-02-10T00:44:02.661Z,0.00
2019-02-10T00:45:02.571Z,0.00
2019-02-10T00:46:02.574Z,0.00
2019-02-10T00:47:02.557Z,0.00
2019-02-10T00:48:02.485Z,0.00
2019-02-10T00:49:02.492Z,0.00
2019-02-10T00:50:02.433Z,0.00
2019-02-10T00:51:02.502Z,0.00
2019-02-10T00:52:02.384Z,0.00
2019-02-10T00:53:02.363Z,0.00
2019-02-10T00:54:02.323Z,0.00
2019-02-10T00:55:02.328Z,0.00
2019-02-10T00:56:02.274Z,0.00
2019-02-10T00:57:02.335Z,0.00
2019-02-10T00:58:02.213Z,0.00
2019-02-10T00:59:02.185Z,0.00
2019-02-10T01:00:02.252Z,0.00
2019-02-10T01:01:02.133Z,0.00
2019-02-10T01:02:02.164Z,0.00
2019-02-10T01:03:02.073Z,0.00
2019-02-10T01:04:02.041Z,0.00
2019-02-10T01:05:02.033Z,0.00
2019-02-10T01:06:02.083Z,0.00
2019-02-10T01:07:01.984Z,0.00
2019-02-10T01:08:01.997Z,0.00
2019-02-10T01:09:01.914Z,0.00
2019-02-10T01:10:01.890Z,0.00
2019-02-10T01:11:01.853Z,0.00
2019-02-10T01:12:01.915Z,0.00
2019-02-10T01:13:01.792Z,0.00
2019-02-10T01:14:01.820Z,0.00
2019-02-10T01:15:01.754Z,0.00
2019-02-10T01:16:01.733Z,0.00
2019-02-10T01:17:01.683Z,0.00
2019-02-10T01:18:01.753Z,0.00
2019-02-10T01:19:01.634Z,0.00
2019-02-10T01:20:01.661Z,0.00
2019-02-10T01:21:01.588Z,0.00
2019-02-10T01:22:01.554Z,0.00
2019-02-10T01:23:01.583Z,0.00
2019-02-10T01:24:01.492Z,0.00
2019-02-10T01:25:01.542Z,0.00
2019-02-10T01:26:01.453Z,0.00
2019-02-10T01:27:01.504Z,0.00
2019-02-10T01:28:01.384Z,0.00
2019-02-10T01:29:01.413Z,0.00
2019-02-10T01:30:01.323Z,0.00
2019-02-10T01:31:01.323Z,0.00
2019-02-10T01:32:01.324Z,0.00
2019-02-10T01:33:01.240Z,0.00
2019-02-10T01:34:01.233Z,0.00
2019-02-10T01:35:01.195Z,0.00
2019-02-10T01:36:01.256Z,0.00
2019-02-10T01:37:01.133Z,0.00
2019-02-10T01:38:01.103Z,0.00
2019-02-10T01:39:01.162Z,0.00
2019-02-10T01:40:01.053Z,0.00
2019-02-10T01:41:01.074Z,0.00
2019-02-10T01:42:00.994Z,0.00
2019-02-10T01:43:00.972Z,0.00
2019-02-10T01:44:00.952Z,0.00
2019-02-10T01:45:01.002Z,0.00
2019-02-10T01:46:00.896Z,0.00
2019-02-10T01:47:00.913Z,0.00
2019-02-10T01:48:00.842Z,0.00
2019-02-10T01:49:00.816Z,0.00
2019-02-10T01:50:00.826Z,0.00
2019-02-10T01:51:00.752Z,0.00
2019-02-10T01:52:00.842Z,0.00
2019-02-10T01:53:00.692Z,0.00
2019-02-10T01:54:00.674Z,0.00
2019-02-10T01:55:00.650Z,0.00
2019-02-10T01:56:00.658Z,0.00
2019-02-10T01:57:00.591Z,0.00
2019-02-10T01:58:00.672Z,0.00
2019-02-10T01:59:00.533Z,0.00
2019-02-10T02:00:00.502Z,0.00
2019-02-10T02:01:00.596Z,0.00
2019-02-10T02:02:00.467Z,0.00
2019-02-10T02:03:00.493Z,0.00
2019-02-10T02:04:00.395Z,0.00
2019-02-10T02:05:00.386Z,0.00
2019-02-10T02:06:00.342Z,0.00
2019-02-10T02:07:00.423Z,0.00
2019-02-10T02:08:00.292Z,0.00
2019-02-10T02:09:00.347Z,0.00
2019-02-10T02:10:00.276Z,0.00
2019-02-10T02:11:00.201Z,0.00
2019-02-10T02:12:00.255Z,0.00
2019-02-10T02:13:00.150Z,0.00
2019-02-10T02:14:00.150Z,0.00
2019-02-10T02:15:00.285Z,0.00
2019-02-10T02:16:00.173Z,0.00
2019-02-10T02:17:00.053Z,0.00
2019-02-10T02:18:00.086Z,0.00
2019-02-10T02:18:59.981Z,0.00
2019-02-10T02:20:00.001Z,0.00
2019-02-10T02:20:59.931Z,0.00
2019-02-10T02:21:59.915Z,0.00
2019-02-10T02:22:59.872Z,0.00
2019-02-10T02:23:59.912Z,0.00
2019-02-10T02:24:59.825Z,0.00
2019-02-10T02:25:59.822Z,0.00
2019-02-10T02:26:59.771Z,0.00
2019-02-10T02:27:59.748Z,0.00
2019-02-10T02:28:59.741Z,0.00
2019-02-10T02:29:59.696Z,0.00
2019-02-10T02:30:59.763Z,0.00
2019-02-10T02:31:59.629Z,0.00
2019-02-10T02:32:59.601Z,0.00
2019-02-10T02:33:59.591Z,0.00
2019-02-10T02:35:00.617Z,0.00
2019-02-10T02:35:59.521Z,0.00
2019-02-10T02:37:07.623Z,0.00
2019-02-10T02:37:59.461Z,0.00
2019-02-10T02:38:59.431Z,0.00
2019-02-10T02:39:59.518Z,0.00
2019-02-10T02:40:59.382Z,0.00
2019-02-10T02:41:59.412Z,0.00
2019-02-10T02:42:59.326Z,0.00
2019-02-10T02:43:59.303Z,0.00
2019-02-10T02:44:59.273Z,0.00
2019-02-10T02:45:59.331Z,0.00
2019-02-10T02:46:59.221Z,0.00
2019-02-10T02:47:59.242Z,0.00
2019-02-10T02:48:59.165Z,0.00
2019-02-10T02:49:59.146Z,0.00
2019-02-10T02:51:00.863Z,0.00
2019-02-10T02:51:59.093Z,0.00
2019-02-10T02:52:59.072Z,0.00
2019-02-10T02:53:59.023Z,0.00
2019-02-10T02:54:59.080Z,0.00
2019-02-10T02:55:58.962Z,0.00
2019-02-10T02:56:59.002Z,0.00
2019-02-10T02:57:58.934Z,0.00
2019-02-10T02:58:58.912Z,0.00
2019-02-10T02:59:58.853Z,0.00
2019-02-10T03:00:58.834Z,0.00
2019-02-10T03:01:58.795Z,0.00
2019-02-10T03:02:58.831Z,0.00
2019-02-10T03:03:58.743Z,0.00
2019-02-10T03:04:58.743Z,0.00
2019-02-10T03:05:58.680Z,0.00
2019-02-10T03:06:58.660Z,0.00
2019-02-10T03:07:58.668Z,0.00
2019-02-10T03:08:58.602Z,0.00
2019-02-10T03:09:58.677Z,0.00
2019-02-10T03:10:58.543Z,0.00
2019-02-10T03:11:58.523Z,0.00
2019-02-10T03:12:58.493Z,0.00
2019-02-10T03:13:58.483Z,0.00
2019-02-10T03:14:58.454Z,0.00
2019-02-10T03:15:58.501Z,0.00
2019-02-10T03:16:58.382Z,0.00
2019-02-10T03:17:58.353Z,0.00
2019-02-10T03:18:58.412Z,0.00
2019-02-10T03:19:58.297Z,0.00
2019-02-10T03:20:58.378Z,0.00
2019-02-10T03:21:58.243Z,0.00
2019-02-10T03:22:58.216Z,0.00
2019-02-10T03:23:58.196Z,0.00
2019-02-10T03:24:58.251Z,0.00
2019-02-10T03:25:58.136Z,0.00
2019-02-10T03:26:58.161Z,0.00
2019-02-10T03:27:58.070Z,0.00
2019-02-10T03:28:58.041Z,0.00
2019-02-10T03:29:58.084Z,0.00
2019-02-10T03:30:58.009Z,0.00
2019-02-10T03:31:57.992Z,0.00
2019-02-10T03:32:57.954Z,0.00
2019-02-10T03:33:57.905Z,0.00
2019-02-10T03:34:57.870Z,0.00
2019-02-10T03:35:57.904Z,0.00
2019-02-10T03:36:57.819Z,0.00
2019-02-10T03:37:57.815Z,0.00
2019-02-10T03:38:57.770Z,0.00
2019-02-10T03:39:57.742Z,0.00
2019-02-10T03:40:57.710Z,0.00
2019-02-10T03:41:57.746Z,0.00
2019-02-10T03:42:57.651Z,0.00
2019-02-10T03:43:57.654Z,0.00
2019-02-10T03:44:57.603Z,0.00
2019-02-10T03:45:57.661Z,0.00
2019-02-10T03:46:57.595Z,0.00
2019-02-10T03:47:57.571Z,0.00
2019-02-10T03:48:57.482Z,0.00
2019-02-10T03:49:57.480Z,0.00
2019-02-10T03:50:57.496Z,0.00
2019-02-10T03:52:03.955Z,0.00
2019-02-10T03:52:57.401Z,0.00
2019-02-10T03:53:57.343Z,0.00
2019-02-10T03:54:57.429Z,0.00
2019-02-10T03:55:57.300Z,0.00
2019-02-10T03:56:57.275Z,0.00
2019-02-10T03:57:57.342Z,0.00
2019-02-10T03:58:57.202Z,0.00
2019-02-10T03:59:57.242Z,0.00
2019-02-10T04:00:57.142Z,0.00
2019-02-10T04:01:57.120Z,0.00
2019-02-10T04:02:57.093Z,0.00
2019-02-10T04:03:57.161Z,0.00
2019-02-10T04:04:57.033Z,0.00
2019-02-10T04:05:57.085Z,0.00
2019-02-10T04:06:56.980Z,0.00
2019-02-10T04:07:56.951Z,0.00
2019-02-10T04:08:56.991Z,0.00
2019-02-10T04:09:56.892Z,0.00
2019-02-10T04:10:56.904Z,0.00
2019-02-10T04:11:56.842Z,0.00
2019-02-10T04:12:56.820Z,0.00
2019-02-10T04:13:56.781Z,0.00
2019-02-10T04:14:56.839Z,0.00
2019-02-10T04:15:56.720Z,0.00
2019-02-10T04:16:56.730Z,0.00
2019-02-10T04:17:56.671Z,0.00
2019-02-10T04:18:56.655Z,0.00
2019-02-10T04:19:56.611Z,0.00
2019-02-10T04:20:56.651Z,0.00
2019-02-10T04:21:56.550Z,0.00
2019-02-10T04:22:56.561Z,0.00
2019-02-10T04:23:56.494Z,0.00
2019-02-10T04:24:56.578Z,0.00
2019-02-10T04:25:56.441Z,0.00
2019-02-10T04:26:56.493Z,0.00
2019-02-10T04:27:56.386Z,0.00
2019-02-10T04:28:56.392Z,0.00
2019-02-10T04:29:56.333Z,0.00
2019-02-10T04:30:56.416Z,0.00
2019-02-10T04:31:56.271Z,0.00
2019-02-10T04:32:56.319Z,0.00
2019-02-10T04:33:56.211Z,0.00
2019-02-10T04:34:56.235Z,0.00
2019-02-10T04:35:56.152Z,0.00
2019-02-10T04:36:56.238Z,0.00
2019-02-10T04:37:56.121Z,0.00
2019-02-10T04:38:56.151Z,0.00
2019-02-10T04:39:56.052Z,0.00
2019-02-10T04:40:56.028Z,0.00
2019-02-10T04:41:55.990Z,0.00
2019-02-10T04:42:56.082Z,0.00
2019-02-10T04:43:55.931Z,0.00
2019-02-10T04:44:55.991Z,0.00
2019-02-10T04:45:55.893Z,0.00
2019-02-10T04:46:55.852Z,0.00
2019-02-10T04:47:55.901Z,0.00
2019-02-10T04:48:55.811Z,0.00
2019-02-10T04:49:55.828Z,0.00
2019-02-10T04:50:55.754Z,0.00
2019-02-10T04:51:55.715Z,0.00
2019-02-10T04:52:55.680Z,0.00
2019-02-10T04:53:55.737Z,0.00
2019-02-10T04:54:55.622Z,0.00
2019-02-10T04:55:55.653Z,0.00
2019-02-10T04:56:55.560Z,0.00
2019-02-10T04:57:55.531Z,0.00
2019-02-10T04:58:55.563Z,0.00
2019-02-10T04:59:55.484Z,0.00
2019-02-10T05:00:55.470Z,0.00
2019-02-10T05:01:55.422Z,0.00
2019-02-10T05:02:55.389Z,0.00
2019-02-10T05:03:55.392Z,0.00
2019-02-10T05:04:55.491Z,0.00
2019-02-10T05:05:55.304Z,0.00
2019-02-10T05:06:55.302Z,0.00
2019-02-10T05:07:55.249Z,0.00
2019-02-10T05:08:55.219Z,0.00
2019-02-10T05:09:55.202Z,0.00
2019-02-10T05:10:55.231Z,0.00
2019-02-10T05:11:55.158Z,0.00
2019-02-10T05:12:55.146Z,0.00
2019-02-10T05:13:55.083Z,0.00
2019-02-10T05:14:55.150Z,0.00
2019-02-10T05:15:55.032Z,0.00
2019-02-10T05:16:55.073Z,0.00
2019-02-10T05:17:54.974Z,0.00
2019-02-10T05:18:54.974Z,0.00
2019-02-10T05:19:54.979Z,0.00
2019-02-10T05:20:54.896Z,0.00
2019-02-10T05:21:54.883Z,0.00
2019-02-10T05:22:54.833Z,0.00
2019-02-10T05:24:03.134Z,0.00
2019-02-10T05:24:54.774Z,0.00
2019-02-10T05:25:54.743Z,0.00
2019-02-10T05:26:54.812Z,0.00
2019-02-10T05:27:54.689Z,0.00
2019-02-10T05:28:54.726Z,0.00
2019-02-10T05:29:54.632Z,0.00
2019-02-10T05:30:54.601Z,0.00
2019-02-10T05:31:54.570Z,0.00
2019-02-10T05:32:54.657Z,0.00
2019-02-10T05:33:54.522Z,0.00
2019-02-10T05:34:54.560Z,0.00
2019-02-10T05:35:54.460Z,0.00
2019-02-10T05:36:54.430Z,0.00
2019-02-10T05:38:03.572Z,0.00
2019-02-10T05:38:54.370Z,0.00
2019-02-10T05:39:54.383Z,0.00
2019-02-10T05:40:54.323Z,0.00
2019-02-10T05:41:54.291Z,0.00
2019-02-10T05:42:54.272Z,0.00
2019-02-10T05:43:54.310Z,0.00
2019-02-10T05:44:54.203Z,0.00
2019-02-10T05:45:54.223Z,0.00
2019-02-10T05:46:54.153Z,0.00
2019-02-10T05:47:54.133Z,0.00
2019-02-10T05:48:54.101Z,0.00
2019-02-10T05:49:54.145Z,0.00
2019-02-10T05:50:54.044Z,0.00
2019-02-10T05:51:54.052Z,0.00
2019-02-10T05:52:53.981Z,0.00
2019-02-10T05:53:53.952Z,0.00
2019-02-10T05:54:53.984Z,0.00
2019-02-10T05:55:53.902Z,0.00
2019-02-10T05:56:53.981Z,0.00
2019-02-10T05:57:53.842Z,0.00
2019-02-10T05:58:53.812Z,0.00
2019-02-10T05:59:53.785Z,0.00
2019-02-10T06:00:53.801Z,0.00
2019-02-10T06:01:53.743Z,0.00
2019-02-10T06:02:53.728Z,0.00
2019-02-10T06:03:53.676Z,0.00
2019-02-10T06:04:53.650Z,0.00
2019-02-10T06:05:53.625Z,0.00
2019-02-10T06:06:53.592Z,0.00
2019-02-10T06:07:53.641Z,0.00
2019-02-10T06:08:53.535Z,0.00
2019-02-10T06:09:53.503Z,0.00
2019-02-10T06:10:53.479Z,0.00
2019-02-10T06:11:53.464Z,0.00
2019-02-10T06:12:53.421Z,0.00
2019-02-10T06:13:53.475Z,0.00
2019-02-10T06:14:53.394Z,0.00
2019-02-10T06:15:53.343Z,0.00
2019-02-10T06:16:53.403Z,0.00
2019-02-10T06:17:53.276Z,0.00
2019-02-10T06:18:53.303Z,0.00
2019-02-10T06:19:53.220Z,0.00
2019-02-10T06:20:53.194Z,0.00
2019-02-10T06:21:53.186Z,0.00
2019-02-10T06:22:53.226Z,0.00
2019-02-10T06:23:53.131Z,0.00
2019-02-10T06:24:53.133Z,0.00
2019-02-10T06:25:53.052Z,0.00
2019-02-10T06:26:53.021Z,0.00
2019-02-10T06:27:52.990Z,0.00
2019-02-10T06:28:53.050Z,0.00
2019-02-10T06:29:52.935Z,0.00
2019-02-10T06:30:52.959Z,0.00
2019-02-10T06:31:52.880Z,0.00
2019-02-10T06:32:52.874Z,0.00
2019-02-10T06:33:53.061Z,0.00
2019-02-10T06:34:52.890Z,0.00
2019-02-10T06:35:52.770Z,0.00
2019-02-10T06:36:52.800Z,0.00
2019-02-10T06:37:52.720Z,0.00
2019-02-10T06:38:52.712Z,0.00
2019-02-10T06:39:52.662Z,0.00
2019-02-10T06:40:52.723Z,0.00
2019-02-10T06:41:52.603Z,0.00
2019-02-10T06:42:52.633Z,0.00
2019-02-10T06:43:52.553Z,0.00
2019-02-10T06:44:52.640Z,0.00
2019-02-10T06:45:52.502Z,0.00
2019-02-10T06:46:52.553Z,0.00
2019-02-10T06:47:52.432Z,0.00
2019-02-10T06:48:52.410Z,0.00
2019-02-10T06:49:52.385Z,0.00
2019-02-10T06:50:52.372Z,0.00
2019-02-10T06:51:52.320Z,0.00
2019-02-10T06:52:52.390Z,0.00
2019-02-10T06:53:52.275Z,0.00
2019-02-10T06:54:52.239Z,0.00
2019-02-10T06:55:52.302Z,0.00
2019-02-10T06:56:52.180Z,0.00
2019-02-10T06:57:52.209Z,0.00
2019-02-10T06:58:52.147Z,0.00
2019-02-10T06:59:52.103Z,0.00
2019-02-10T07:00:52.079Z,0.00
2019-02-10T07:01:52.131Z,0.00
2019-02-10T07:02:52.033Z,0.00
2019-02-10T07:03:52.040Z,0.00
2019-02-10T07:04:51.965Z,0.00
2019-02-10T07:05:51.935Z,0.00
2019-02-10T07:06:51.962Z,0.00
2019-02-10T07:07:51.879Z,0.00
2019-02-10T07:08:51.871Z,0.00
2019-02-10T07:09:51.831Z,0.00
2019-02-10T07:10:51.801Z,0.00
2019-02-10T07:11:51.772Z,0.00
2019-02-10T07:12:52.822Z,0.00
2019-02-10T07:13:51.711Z,0.00
2019-02-10T07:14:51.721Z,0.00
2019-02-10T07:15:51.660Z,0.00
2019-02-10T07:16:51.630Z,0.00
2019-02-10T07:17:51.603Z,0.00
2019-02-10T07:18:51.653Z,0.00
2019-02-10T07:19:51.560Z,0.00
2019-02-10T07:20:51.557Z,0.00
2019-02-10T07:21:51.495Z,0.00
2019-02-10T07:22:51.474Z,0.00
2019-02-10T07:23:51.532Z,0.00
2019-02-10T07:24:51.414Z,0.00
2019-02-10T07:25:51.541Z,0.00
2019-02-10T07:26:51.394Z,0.00
2019-02-10T07:27:51.332Z,0.00
2019-02-10T07:28:51.308Z,0.00
2019-02-10T07:29:51.372Z,0.00
2019-02-10T07:30:51.250Z,0.00
2019-02-10T07:31:51.382Z,0.00
2019-02-10T07:32:51.213Z,0.00
2019-02-10T07:33:51.292Z,0.00
2019-02-10T07:34:51.136Z,0.00
2019-02-10T07:35:51.202Z,0.00
2019-02-10T07:36:51.086Z,0.00
2019-02-10T07:37:51.222Z,0.00
2019-02-10T07:38:51.131Z,0.00
2019-02-10T07:39:51.007Z,0.00
2019-02-10T07:40:51.131Z,0.00
2019-02-10T07:41:50.941Z,0.00
2019-02-10T07:42:51.053Z,5.63
2019-02-10T07:43:50.890Z,5.63
2019-02-10T07:44:50.851Z,5.63
2019-02-10T07:45:50.963Z,5.63
2019-02-10T07:46:50.804Z,5.63
2019-02-10T07:47:50.985Z,5.63
2019-02-10T07:48:50.962Z,0.00
2019-02-10T07:49:50.736Z,0.00
2019-02-10T07:50:50.703Z,5.63
2019-02-10T07:51:50.808Z,5.63
2019-02-10T07:52:50.655Z,5.63
2019-02-10T07:53:50.881Z,5.63
2019-02-10T07:54:50.593Z,5.63
2019-02-10T07:55:50.567Z,5.63
2019-02-10T07:56:50.741Z,5.63
2019-02-10T07:57:50.502Z,5.63
2019-02-10T07:58:50.651Z,5.63
2019-02-10T07:59:50.452Z,5.63
2019-02-10T08:00:50.423Z,5.63
2019-02-10T08:01:50.426Z,11.25
2019-02-10T08:02:50.574Z,16.88
2019-02-10T08:03:50.343Z,16.88
2019-02-10T08:04:50.498Z,11.25
2019-02-10T08:05:50.284Z,11.25
2019-02-10T08:06:50.252Z,11.25
2019-02-10T08:07:50.242Z,11.25
2019-02-10T08:08:50.428Z,11.25
2019-02-10T08:09:50.183Z,11.25
2019-02-10T08:10:50.226Z,11.25
2019-02-10T08:11:50.121Z,11.25
2019-02-10T08:12:50.164Z,11.25
2019-02-10T08:13:50.072Z,11.25
2019-02-10T08:14:50.147Z,11.25
2019-02-10T08:15:50.025Z,16.88
2019-02-10T08:16:50.081Z,16.88
2019-02-10T08:17:50.074Z,22.50
2019-02-10T08:18:49.922Z,28.13
2019-02-10T08:19:49.980Z,16.88
2019-02-10T08:20:49.891Z,22.50
2019-02-10T08:21:49.890Z,22.50
2019-02-10T08:22:49.822Z,22.50
2019-02-10T08:23:49.794Z,22.50
2019-02-10T08:24:49.812Z,22.50
2019-02-10T08:25:49.749Z,16.88
2019-02-10T08:26:49.821Z,16.88
2019-02-10T08:27:49.690Z,22.50
2019-02-10T08:28:49.675Z,22.50
2019-02-10T08:29:49.633Z,16.88
2019-02-10T08:30:49.657Z,22.50
2019-02-10T08:31:49.573Z,28.13
2019-02-10T08:32:49.661Z,22.50
2019-02-10T08:33:49.525Z,22.50
2019-02-10T08:34:49.506Z,22.50
2019-02-10T08:35:49.583Z,22.50
2019-02-10T08:36:49.444Z,28.13
2019-02-10T08:37:49.488Z,22.50
2019-02-10T08:38:54.409Z,22.50
2019-02-10T08:39:49.373Z,22.50
2019-02-10T08:40:49.330Z,28.13
2019-02-10T08:41:49.431Z,28.13
2019-02-10T08:42:49.292Z,33.75
2019-02-10T08:43:49.331Z,33.75
2019-02-10T08:44:49.259Z,33.75
2019-02-10T08:45:49.243Z,39.38
2019-02-10T08:46:49.170Z,45.00
2019-02-10T08:47:49.252Z,39.38
2019-02-10T08:48:49.120Z,33.75
2019-02-10T08:49:49.162Z,28.13
2019-02-10T08:50:49.093Z,28.13
2019-02-10T08:51:49.083Z,33.75
2019-02-10T08:52:51.856Z,33.75
2019-02-10T08:53:49.102Z,28.13
2019-02-10T08:54:48.961Z,28.13
2019-02-10T08:55:50.045Z,28.13
2019-02-10T08:56:48.901Z,22.50
2019-02-10T08:57:48.922Z,22.50
2019-02-10T08:58:48.853Z,22.50
2019-02-10T08:59:48.932Z,22.50
2019-02-10T09:00:48.802Z,22.50
2019-02-10T09:01:48.771Z,28.13
2019-02-10T09:02:48.741Z,28.13
2019-02-10T09:03:48.763Z,28.13
2019-02-10T09:04:48.683Z,28.13
2019-02-10T09:05:48.762Z,28.13
2019-02-10T09:06:48.657Z,22.50
2019-02-10T09:07:48.611Z,22.50
2019-02-10T09:08:48.680Z,22.50
2019-02-10T09:09:48.569Z,22.50
2019-02-10T09:10:48.601Z,16.88
2019-02-10T09:11:48.505Z,16.88
2019-02-10T09:12:48.483Z,16.88
2019-02-10T09:13:48.456Z,11.25
2019-02-10T09:14:48.519Z,11.25
2019-02-10T09:15:48.414Z,11.25
2019-02-10T09:16:48.433Z,11.25
2019-02-10T09:17:48.357Z,11.25
2019-02-10T09:18:48.313Z,11.25
2019-02-10T09:19:48.351Z,11.25
2019-02-10T09:20:48.261Z,11.25
2019-02-10T09:21:48.261Z,11.25
2019-02-10T09:22:48.224Z,11.25
2019-02-10T09:23:48.183Z,11.25
2019-02-10T09:24:48.150Z,11.25
2019-02-10T09:25:48.192Z,11.25
2019-02-10T09:26:48.114Z,11.25
2019-02-10T09:27:48.100Z,11.25
2019-02-10T09:28:48.053Z,11.25
2019-02-10T09:29:48.157Z,11.25
2019-02-10T09:30:47.990Z,11.25
2019-02-10T09:31:48.032Z,11.25
2019-02-10T09:32:47.934Z,11.25
2019-02-10T09:33:47.941Z,11.25
2019-02-10T09:34:47.953Z,11.25
2019-02-10T09:35:47.864Z,11.25
2019-02-10T09:36:47.862Z,11.25
2019-02-10T09:37:47.802Z,11.25
2019-02-10T09:38:47.877Z,11.25
2019-02-10T09:39:47.752Z,11.25
2019-02-10T09:40:47.721Z,11.25
2019-02-10T09:41:47.795Z,11.25
2019-02-10T09:42:47.675Z,11.25
2019-02-10T09:43:47.716Z,11.25
2019-02-10T09:44:47.624Z,11.25
2019-02-10T09:45:47.601Z,11.25
2019-02-10T09:46:47.560Z,16.88
2019-02-10T09:47:47.634Z,16.88
2019-02-10T09:48:47.544Z,16.88
2019-02-10T09:49:47.555Z,11.25
2019-02-10T09:50:47.451Z,11.25
2019-02-10T09:51:47.420Z,11.25
2019-02-10T09:52:55.741Z,11.25
2019-02-10T09:54:51.658Z,16.88
2019-02-10T09:55:51.450Z,16.88
2019-02-10T09:57:55.481Z,16.88
2019-02-10T09:58:55.361Z,16.88
2019-02-10T09:59:55.441Z,16.88
2019-02-10T10:00:55.311Z,22.50
2019-02-10T10:01:55.359Z,22.50
2019-02-10T10:02:55.251Z,22.50
2019-02-10T10:03:55.263Z,22.50
2019-02-10T10:04:55.204Z,22.50
2019-02-10T10:05:55.281Z,22.50
2019-02-10T10:06:55.151Z,22.50
2019-02-10T10:07:55.111Z,22.50
2019-02-10T10:08:55.094Z,22.50
2019-02-10T10:09:55.103Z,22.50
2019-02-10T10:10:55.041Z,22.50
2019-02-10T10:11:55.120Z,22.50
2019-02-10T10:12:54.981Z,22.50
2019-02-10T10:13:54.953Z,22.50
2019-02-10T10:14:55.034Z,22.50
2019-02-10T10:15:54.911Z,22.50
2019-02-10T10:16:54.955Z,22.50
2019-02-10T10:17:54.853Z,28.13
2019-02-10T10:18:54.820Z,28.13
2019-02-10T10:19:55.018Z,28.13
2019-02-10T10:20:54.871Z,28.13
2019-02-10T10:21:54.744Z,28.13
2019-02-10T10:22:54.783Z,22.50
2019-02-10T10:23:54.683Z,22.50
2019-02-10T10:24:54.652Z,22.50
2019-02-10T10:25:54.704Z,28.13
2019-02-10T10:26:54.605Z,28.13
2019-02-10T10:27:54.610Z,33.75
2019-02-10T10:28:54.542Z,33.75
2019-02-10T10:29:54.520Z,39.38
2019-02-10T10:30:54.481Z,39.38
2019-02-10T10:31:54.541Z,39.38
2019-02-10T10:32:54.444Z,39.38
2019-02-10T10:33:54.451Z,45.00
2019-02-10T10:34:54.371Z,39.38
2019-02-10T10:35:54.352Z,45.00
2019-02-10T10:36:54.378Z,45.00
2019-02-10T10:37:54.304Z,45.00
2019-02-10T10:38:54.382Z,45.00
2019-02-10T10:39:54.458Z,45.00
2019-02-10T10:40:54.302Z,45.00
2019-02-10T10:41:54.192Z,50.63
2019-02-10T10:42:54.213Z,50.63
2019-02-10T10:43:54.132Z,50.63
2019-02-10T10:44:54.122Z,50.63
2019-02-10T10:45:54.084Z,50.63
2019-02-10T10:46:54.052Z,50.63
2019-02-10T10:47:54.031Z,50.63
2019-02-10T10:48:54.052Z,50.63
2019-02-10T10:49:53.972Z,50.63
2019-02-10T10:50:53.961Z,50.63
2019-02-10T10:51:53.922Z,45.00
2019-02-10T10:52:53.903Z,45.00
2019-02-10T10:53:53.986Z,45.00
2019-02-10T10:54:53.831Z,33.75
2019-02-10T10:55:53.897Z,39.38
2019-02-10T10:56:53.780Z,45.00
2019-02-10T10:57:53.761Z,50.63
2019-02-10T10:58:53.823Z,56.25
2019-02-10T10:59:53.707Z,50.63
2019-02-10T11:00:53.722Z,50.63
2019-02-10T11:01:53.654Z,45.00
2019-02-10T11:02:53.632Z,45.00
2019-02-10T11:03:53.594Z,45.00
2019-02-10T11:04:53.650Z,45.00
2019-02-10T11:05:53.542Z,45.00
2019-02-10T11:06:53.575Z,45.00
2019-02-10T11:07:53.484Z,50.63
2019-02-10T11:08:53.465Z,50.63
2019-02-10T11:09:53.482Z,50.63
2019-02-10T11:10:53.417Z,50.63
2019-02-10T11:11:53.395Z,50.63
2019-02-10T11:12:53.350Z,50.63
2019-02-10T11:13:53.404Z,50.63
2019-02-10T11:14:53.294Z,50.63
2019-02-10T11:15:53.313Z,45.00
2019-02-10T11:16:53.256Z,50.63
2019-02-10T11:17:53.233Z,45.00
2019-02-10T11:18:53.204Z,39.38
2019-02-10T11:19:53.167Z,39.38
2019-02-10T11:20:53.131Z,39.38
2019-02-10T11:21:53.153Z,39.38
2019-02-10T11:22:53.086Z,45.00
2019-02-10T11:23:53.061Z,45.00
2019-02-10T11:24:53.046Z,50.63
2019-02-10T11:25:53.007Z,45.00
2019-02-10T11:26:53.082Z,45.00
2019-02-10T11:27:52.955Z,39.38
2019-02-10T11:28:53.002Z,39.38
2019-02-10T11:29:52.893Z,39.38
2019-02-10T11:30:52.883Z,45.00
2019-02-10T11:31:52.843Z,50.63
2019-02-10T11:32:52.923Z,56.25
2019-02-10T11:33:52.796Z,50.63
2019-02-10T11:34:52.831Z,45.00
2019-02-10T11:35:52.733Z,33.75
2019-02-10T11:36:52.714Z,28.13
2019-02-10T11:37:52.754Z,28.13
2019-02-10T11:38:52.651Z,22.50
2019-02-10T11:39:52.663Z,22.50
2019-02-10T11:40:52.592Z,16.88
2019-02-10T11:41:52.561Z,16.88
2019-02-10T11:42:52.541Z,22.50
2019-02-10T11:43:52.603Z,16.88
2019-02-10T11:44:52.482Z,16.88
2019-02-10T11:45:52.502Z,16.88
2019-02-10T11:46:52.434Z,16.88
2019-02-10T11:47:52.403Z,16.88
2019-02-10T11:48:52.381Z,16.88
2019-02-10T11:49:52.434Z,22.50
2019-02-10T11:50:52.331Z,28.13
2019-02-10T11:51:52.343Z,39.38
2019-02-10T11:52:52.286Z,45.00
2019-02-10T11:53:52.243Z,45.00
2019-02-10T11:54:52.262Z,45.00
2019-02-10T11:55:52.182Z,45.00
2019-02-10T11:56:52.271Z,45.00
2019-02-10T11:57:52.169Z,45.00
2019-02-10T11:58:52.103Z,45.00
2019-02-10T11:59:52.092Z,45.00
2019-02-10T12:00:52.053Z,45.00
2019-02-10T12:01:52.105Z,45.00
2019-02-10T12:02:52.002Z,45.00
2019-02-10T12:03:51.985Z,45.00
2019-02-10T12:04:51.944Z,39.38
2019-02-10T12:05:51.932Z,39.38
2019-02-10T12:06:51.892Z,39.38
2019-02-10T12:07:51.942Z,39.38
2019-02-10T12:08:51.842Z,39.38
2019-02-10T12:09:51.967Z,39.38
2019-02-10T12:10:51.865Z,39.38
2019-02-10T12:11:51.755Z,39.38
2019-02-10T12:12:51.807Z,39.38
2019-02-10T12:13:51.703Z,33.75
2019-02-10T12:14:51.670Z,33.75
2019-02-10T12:15:51.654Z,33.75
2019-02-10T12:16:51.703Z,33.75
2019-02-10T12:17:51.591Z,33.75
2019-02-10T12:18:51.612Z,33.75
2019-02-10T12:19:51.533Z,33.75
2019-02-10T12:20:51.514Z,33.75
2019-02-10T12:21:51.482Z,33.75
2019-02-10T12:22:51.533Z,33.75
2019-02-10T12:23:51.424Z,33.75
2019-02-10T12:24:51.454Z,33.75
2019-02-10T12:25:51.372Z,33.75
2019-02-10T12:26:51.341Z,33.75
2019-02-10T12:27:51.374Z,28.13
2019-02-10T12:28:51.303Z,28.13
2019-02-10T12:29:51.284Z,28.13
2019-02-10T12:30:51.233Z,28.13
2019-02-10T12:31:51.213Z,28.13
2019-02-10T12:32:51.183Z,28.13
2019-02-10T12:33:51.202Z,28.13
2019-02-10T12:34:51.136Z,28.13
2019-02-10T12:35:58.199Z,28.13
2019-02-10T12:36:51.072Z,28.13
2019-02-10T12:37:51.132Z,33.75
2019-02-10T12:38:51.015Z,39.38
2019-02-10T12:39:51.043Z,39.38
2019-02-10T12:40:50.967Z,39.38
2019-02-10T12:41:51.055Z,39.38
2019-02-10T12:42:50.914Z,45.00
2019-02-10T12:43:50.973Z,50.63
2019-02-10T12:44:50.853Z,50.63
2019-02-10T12:45:50.894Z,61.88
2019-02-10T12:46:50.811Z,61.88
2019-02-10T12:47:50.774Z,67.50
2019-02-10T12:48:50.743Z,61.88
2019-02-10T12:49:50.803Z,50.63
2019-02-10T12:50:51.958Z,39.38
2019-02-10T12:51:50.721Z,39.38
2019-02-10T12:52:50.633Z,50.63
2019-02-10T12:53:50.611Z,101.25
2019-02-10T12:54:50.632Z,146.25
2019-02-10T12:55:50.554Z,135.00
2019-02-10T12:56:50.652Z,129.38
2019-02-10T12:57:50.502Z,219.38
2019-02-10T12:58:50.473Z,371.25
2019-02-10T12:59:50.442Z,275.63
2019-02-10T13:00:50.484Z,405.00
2019-02-10T13:01:50.395Z,320.63
2019-02-10T13:02:50.493Z,405.00
2019-02-10T13:03:50.333Z,151.88
2019-02-10T13:04:50.313Z,101.25
2019-02-10T13:05:50.423Z,95.63
2019-02-10T13:06:50.263Z,78.75
2019-02-10T13:07:50.323Z,73.13
2019-02-10T13:08:50.203Z,73.13